Time;durP1;ratioP1;P1;durP2;ratioP2;P2;SDS_P1;SDS_P2;PMS_P1;PMS_P2;Temp;Humidity;BMP_temperature;BMP_pressure;BME280_temperature;BME280_humidity;BME280_pressure;Samples;Min_cycle;Max_cycle;Signal;HPM_P1;HPM_P2
2022/03/13 00:00:36;;;;;;;4.65;2.95;;;;;;;;;;4936510;29;20473;-76
2022/03/13 00:03:06;;;;;;;4.13;2.97;;;;;;;;;;4936060;29;20114;-75
2022/03/13 00:05:35;;;;;;;5.43;2.83;;;;;;;;;;4936280;29;20099;-74
2022/03/13 00:08:02;;;;;;;3.95;2.85;;;;;;;;;;4936415;29;20074;-75
2022/03/13 00:10:30;;;;;;;4.65;2.75;;;;;;;;;;4936148;29;20046;-73
2022/03/13 00:12:57;;;;;;;4.93;2.70;;;;;;;;;;4936176;29;20030;-75
2022/03/13 00:15:32;;;;;;;5.05;2.75;;;;;;;;;;4936050;29;20034;-76
2022/03/13 00:17:59;;;;;;;4.60;2.80;;;;;;;;;;4936068;29;20035;-75
2022/03/13 00:20:26;;;;;;;5.32;2.85;;;;;;;;;;4936535;29;20027;-74
2022/03/13 00:22:54;;;;;;;5.03;3.20;;;;;;;;;;4935830;29;20107;-74
2022/03/13 00:25:20;;;;;;;4.95;2.90;;;;;;;;;;4936256;29;20042;-75
2022/03/13 00:27:47;;;;;;;4.47;3.00;;;;;;;;;;4936179;29;20027;-74
2022/03/13 00:30:13;;;;;;;4.95;2.70;;;;;;;;;;4935898;29;20020;-74
2022/03/13 00:32:39;;;;;;;4.03;2.75;;;;;;;;;;4936224;29;20083;-74
2022/03/13 00:35:05;;;;;;;3.60;3.10;;;;;;;;;;4935783;29;20015;-74
2022/03/13 00:37:31;;;;;;;4.30;2.75;;;;;;;;;;4935471;29;20074;-74
2022/03/13 00:40:00;;;;;;;3.17;2.67;;;;;;;;;;4935720;29;20496;-75
2022/03/13 00:42:26;;;;;;;3.72;2.80;;;;;;;;;;4935707;29;20027;-75
2022/03/13 00:44:52;;;;;;;4.50;3.55;;;;;;;;;;4935547;29;20035;-76
2022/03/13 00:47:18;;;;;;;5.72;3.33;;;;;;;;;;4935297;29;20149;-74
2022/03/13 00:49:45;;;;;;;5.75;3.28;;;;;;;;;;4917846;29;20099;-75
2022/03/13 00:52:11;;;;;;;4.57;2.75;;;;;;;;;;4935231;29;20020;-75
2022/03/13 00:54:37;;;;;;;3.75;2.60;;;;;;;;;;4935463;29;20066;-76
2022/03/13 00:57:03;;;;;;;3.05;2.38;;;;;;;;;;4935502;29;20063;-76
2022/03/13 00:59:30;;;;;;;3.22;2.90;;;;;;;;;;4918388;29;20027;-75
2022/03/13 01:01:56;;;;;;;4.03;2.80;;;;;;;;;;4935450;29;20449;-75
2022/03/13 01:04:22;;;;;;;4.55;3.22;;;;;;;;;;4935205;29;20067;-74
2022/03/13 01:06:48;;;;;;;4.25;3.30;;;;;;;;;;4935464;29;20031;-73
2022/03/13 01:09:14;;;;;;;4.03;3.05;;;;;;;;;;4935409;29;20159;-74
2022/03/13 01:11:40;;;;;;;3.75;2.85;;;;;;;;;;4935413;29;20060;-73
2022/03/13 01:14:06;;;;;;;4.15;2.92;;;;;;;;;;4918349;29;20028;-74
2022/03/13 01:16:37;;;;;;;4.25;3.15;;;;;;;;;;4935604;29;20429;-74
2022/03/13 01:19:03;;;;;;;5.20;2.97;;;;;;;;;;4935553;29;20082;-74
2022/03/13 01:21:31;;;;;;;6.15;3.00;;;;;;;;;;4917892;29;20500;-74
2022/03/13 01:24:00;;;;;;;4.68;3.28;;;;;;;;;;4935398;29;20043;-74
2022/03/13 01:26:26;;;;;;;5.22;3.10;;;;;;;;;;4935186;29;20481;-74
2022/03/13 01:28:56;;;;;;;6.55;3.95;;;;;;;;;;4935284;29;20036;-74
2022/03/13 01:31:24;;;;;;;4.60;3.53;;;;;;;;;;4918058;29;20063;-74
2022/03/13 01:33:50;;;;;;;4.88;3.30;;;;;;;;;;4918021;29;20032;-75
2022/03/13 01:36:17;;;;;;;5.18;3.85;;;;;;;;;;4934877;29;20032;-75
2022/03/13 01:38:43;;;;;;;6.85;4.00;;;;;;;;;;4935329;29;20091;-74
2022/03/13 01:41:09;;;;;;;4.97;3.90;;;;;;;;;;4935092;29;20394;-74
2022/03/13 01:43:36;;;;;;;5.78;3.40;;;;;;;;;;4934975;29;20187;-74
2022/03/13 01:46:02;;;;;;;6.70;3.75;;;;;;;;;;4934718;29;20378;-74
2022/03/13 01:48:29;;;;;;;5.18;3.97;;;;;;;;;;4935067;29;20031;-75
2022/03/13 01:50:55;;;;;;;5.45;3.38;;;;;;;;;;4934901;29;20031;-74
2022/03/13 01:53:21;;;;;;;4.70;3.28;;;;;;;;;;4917800;29;20392;-73
2022/03/13 01:55:55;;;;;;;5.22;3.72;;;;;;;;;;4935012;29;20028;-74
2022/03/13 01:58:21;;;;;;;4.50;3.25;;;;;;;;;;4934782;29;20094;-76
2022/03/13 02:00:47;;;;;;;6.10;4.15;;;;;;;;;;4920603;29;20040;-74
2022/03/13 02:03:15;;;;;;;5.90;3.40;;;;;;;;;;4917526;29;20126;-73
2022/03/13 02:05:42;;;;;;;5.35;3.53;;;;;;;;;;4918061;29;20032;-75
2022/03/13 02:08:19;;;;;;;7.40;3.83;;;;;;;;;;4919526;29;20024;-76
2022/03/13 02:10:45;;;;;;;5.22;3.90;;;;;;;;;;4919318;29;20043;-74
2022/03/13 02:13:11;;;;;;;5.50;3.80;;;;;;;;;;4919216;29;20021;-73
2022/03/13 02:15:38;;;;;;;5.45;3.90;;;;;;;;;;4919317;29;20064;-74
2022/03/13 02:18:05;;;;;;;6.07;3.78;;;;;;;;;;4919586;29;20056;-73
2022/03/13 02:20:35;;;;;;;8.90;4.03;;;;;;;;;;4917271;29;20024;-73
2022/03/13 02:23:02;;;;;;;6.72;4.18;;;;;;;;;;4917661;29;20064;-74
2022/03/13 02:25:34;;;;;;;6.07;3.90;;;;;;;;;;4917753;29;20438;-74
2022/03/13 02:28:00;;;;;;;6.25;3.88;;;;;;;;;;4901044;29;20028;-74
2022/03/13 02:30:27;;;;;;;6.35;3.63;;;;;;;;;;4918334;29;20024;-75
2022/03/13 02:32:53;;;;;;;4.90;3.45;;;;;;;;;;4918174;29;20517;-74
2022/03/13 02:35:19;;;;;;;5.15;3.97;;;;;;;;;;4918406;29;20051;-75
2022/03/13 02:37:45;;;;;;;6.28;4.32;;;;;;;;;;4918695;29;20094;-75
2022/03/13 02:40:20;;;;;;;6.18;4.30;;;;;;;;;;4918859;29;20542;-75
2022/03/13 02:42:46;;;;;;;5.60;3.70;;;;;;;;;;4918675;29;20111;-73
2022/03/13 02:45:22;;;;;;;5.78;4.38;;;;;;;;;;4918466;29;20049;-74
2022/03/13 02:47:48;;;;;;;8.82;4.60;;;;;;;;;;4918370;29;20088;-73
2022/03/13 02:50:14;;;;;;;6.78;4.28;;;;;;;;;;4918703;29;20446;-75
2022/03/13 02:52:41;;;;;;;6.00;5.03;;;;;;;;;;4918399;29;20039;-75
2022/03/13 02:55:07;;;;;;;7.70;4.38;;;;;;;;;;4918625;29;20020;-74
2022/03/13 02:57:35;;;;;;;7.00;4.80;;;;;;;;;;4918403;29;20028;-74
2022/03/13 03:00:01;;;;;;;6.32;4.50;;;;;;;;;;4901641;29;20020;-74
2022/03/13 03:02:27;;;;;;;7.18;4.70;;;;;;;;;;4918302;29;20036;-74
2022/03/13 03:04:54;;;;;;;7.15;5.35;;;;;;;;;;4918647;29;20032;-73
2022/03/13 03:07:20;;;;;;;6.88;4.43;;;;;;;;;;4918706;29;20028;-74
2022/03/13 03:09:46;;;;;;;8.30;5.13;;;;;;;;;;4918569;29;20111;-74
2022/03/13 03:12:12;;;;;;;8.93;5.38;;;;;;;;;;4917390;29;20116;-74
2022/03/13 03:14:38;;;;;;;6.20;4.47;;;;;;;;;;4918342;29;20036;-75
2022/03/13 03:17:05;;;;;;;7.43;5.20;;;;;;;;;;4917864;29;20024;-75
2022/03/13 03:19:31;;;;;;;8.23;5.20;;;;;;;;;;4918244;29;20067;-75
2022/03/13 03:21:58;;;;;;;7.82;5.28;;;;;;;;;;4918036;29;20024;-74
2022/03/13 03:24:25;;;;;;;6.43;4.82;;;;;;;;;;4917934;29;20135;-74
2022/03/13 03:26:51;;;;;;;7.32;4.93;;;;;;;;;;4918312;29;20017;-74
2022/03/13 03:29:17;;;;;;;6.97;5.18;;;;;;;;;;4918307;29;20091;-75
2022/03/13 03:31:45;;;;;;;8.50;5.88;;;;;;;;;;4917680;29;20024;-74
2022/03/13 03:34:18;;;;;;;9.07;5.32;;;;;;;;;;4900784;29;20444;-75
2022/03/13 03:36:46;;;;;;;9.90;5.18;;;;;;;;;;4917855;29;20540;-75
2022/03/13 03:39:13;;;;;;;8.07;5.57;;;;;;;;;;4918027;29;20048;-75
2022/03/13 03:41:41;;;;;;;8.82;5.43;;;;;;;;;;4901332;29;20054;-73
2022/03/13 03:44:07;;;;;;;7.57;5.20;;;;;;;;;;4918358;29;20489;-74
2022/03/13 03:46:33;;;;;;;9.65;5.78;;;;;;;;;;4917332;29;20040;-74
2022/03/13 03:48:59;;;;;;;12.13;6.10;;;;;;;;;;4917512;29;20100;-75
2022/03/13 03:51:25;;;;;;;9.15;6.28;;;;;;;;;;4917472;29;20048;-74
2022/03/13 03:53:51;;;;;;;8.93;6.57;;;;;;;;;;4917370;29;20110;-75
2022/03/13 03:56:17;;;;;;;11.68;6.60;;;;;;;;;;4917554;29;20056;-75
2022/03/13 03:58:43;;;;;;;10.38;6.60;;;;;;;;;;4917393;29;20127;-75
2022/03/13 04:01:09;;;;;;;10.48;6.43;;;;;;;;;;4900203;29;20115;-74
2022/03/13 04:03:35;;;;;;;11.27;6.35;;;;;;;;;;4917168;29;20072;-75
2022/03/13 04:06:01;;;;;;;10.38;6.65;;;;;;;;;;4917276;29;20426;-75
2022/03/13 04:08:29;;;;;;;9.35;6.78;;;;;;;;;;4917165;29;20028;-73
2022/03/13 04:10:55;;;;;;;11.18;7.30;;;;;;;;;;4917189;29;20038;-74
2022/03/13 04:13:21;;;;;;;11.55;7.22;;;;;;;;;;4917012;29;20066;-74
2022/03/13 04:15:47;;;;;;;11.73;8.18;;;;;;;;;;4916768;29;20032;-73
2022/03/13 04:18:14;;;;;;;12.98;8.10;;;;;;;;;;4899913;29;20115;-74
2022/03/13 04:20:41;;;;;;;15.85;8.88;;;;;;;;;;4916990;29;20470;-74
2022/03/13 04:23:07;;;;;;;14.43;8.95;;;;;;;;;;4899949;29;20084;-75
2022/03/13 04:25:34;;;;;;;14.82;9.38;;;;;;;;;;4916834;29;20119;-74
2022/03/13 04:28:00;;;;;;;12.50;7.45;;;;;;;;;;4917061;29;20051;-75
2022/03/13 04:30:30;;;;;;;16.60;9.77;;;;;;;;;;4916513;29;20032;-74
2022/03/13 04:32:57;;;;;;;15.40;9.25;;;;;;;;;;4916937;29;20549;-74
2022/03/13 04:35:23;;;;;;;15.93;9.93;;;;;;;;;;4916738;29;20028;-73
2022/03/13 04:37:49;;;;;;;15.57;9.68;;;;;;;;;;4916656;29;20374;-74
2022/03/13 04:40:16;;;;;;;16.58;10.27;;;;;;;;;;4916705;29;20024;-74
2022/03/13 04:42:42;;;;;;;16.42;9.75;;;;;;;;;;4916484;29;20107;-74
2022/03/13 04:45:09;;;;;;;15.80;10.10;;;;;;;;;;4916097;29;20063;-75
2022/03/13 04:47:35;;;;;;;17.42;11.20;;;;;;;;;;4916685;29;20043;-74
2022/03/13 04:50:01;;;;;;;20.45;11.70;;;;;;;;;;4916515;29;20036;-75
2022/03/13 04:52:28;;;;;;;17.50;10.80;;;;;;;;;;4916481;29;20035;-74
2022/03/13 04:54:54;;;;;;;17.33;11.02;;;;;;;;;;4916567;29;20433;-75
2022/03/13 04:57:20;;;;;;;18.10;11.20;;;;;;;;;;4916806;29;20028;-75
2022/03/13 04:59:46;;;;;;;18.13;11.57;;;;;;;;;;4916242;29;20029;-75
2022/03/13 05:02:12;;;;;;;22.10;13.10;;;;;;;;;;4916372;29;20032;-76
2022/03/13 05:04:38;;;;;;;19.38;11.23;;;;;;;;;;4916529;29;20113;-75
2022/03/13 05:07:06;;;;;;;19.83;12.18;;;;;;;;;;4916689;29;20032;-75
2022/03/13 05:09:33;;;;;;;20.33;12.93;;;;;;;;;;4916464;29;20024;-75
2022/03/13 05:12:09;;;;;;;21.70;12.75;;;;;;;;;;4916662;29;20043;-75
2022/03/13 05:14:35;;;;;;;24.70;13.27;;;;;;;;;;4899146;29;20024;-75
2022/03/13 05:17:01;;;;;;;21.33;13.35;;;;;;;;;;4916858;29;20063;-75
2022/03/13 05:19:27;;;;;;;21.77;12.70;;;;;;;;;;4916534;29;20052;-75
2022/03/13 05:21:53;;;;;;;23.80;12.70;;;;;;;;;;4916348;29;20029;-75
2022/03/13 05:24:19;;;;;;;20.23;13.05;;;;;;;;;;4916596;29;20036;-76
2022/03/13 05:26:45;;;;;;;24.08;13.25;;;;;;;;;;4916184;29;20441;-75
2022/03/13 05:29:11;;;;;;;22.30;13.30;;;;;;;;;;4916069;29;20108;-73
2022/03/13 05:31:39;;;;;;;21.60;13.60;;;;;;;;;;4915975;29;20024;-73
2022/03/13 05:34:05;;;;;;;22.90;13.00;;;;;;;;;;4916570;29;20497;-73
2022/03/13 05:36:31;;;;;;;22.88;13.93;;;;;;;;;;4919869;29;20036;-73
2022/03/13 05:38:57;;;;;;;23.77;13.95;;;;;;;;;;4919961;29;20032;-73
2022/03/13 05:41:25;;;;;;;23.33;14.20;;;;;;;;;;4902631;29;20032;-72
2022/03/13 05:43:51;;;;;;;23.63;14.38;;;;;;;;;;4919605;29;20466;-74
2022/03/13 05:46:18;;;;;;;23.30;13.82;;;;;;;;;;4919582;29;20028;-74
2022/03/13 05:48:44;;;;;;;23.35;14.48;;;;;;;;;;4919856;29;20357;-76
2022/03/13 05:51:10;;;;;;;22.40;13.68;;;;;;;;;;4919586;29;20020;-76
2022/03/13 05:53:36;;;;;;;21.92;13.77;;;;;;;;;;4919804;29;20025;-75
2022/03/13 05:56:02;;;;;;;23.58;15.20;;;;;;;;;;4902667;29;20032;-74
2022/03/13 05:58:28;;;;;;;25.05;14.30;;;;;;;;;;4919456;29;20024;-75
2022/03/13 06:01:04;;;;;;;23.15;14.98;;;;;;;;;;4919460;29;20032;-75
2022/03/13 06:03:30;;;;;;;25.48;14.57;;;;;;;;;;4919445;29;20036;-75
2022/03/13 06:05:57;;;;;;;31.33;14.77;;;;;;;;;;4919649;29;20039;-74
2022/03/13 06:08:23;;;;;;;25.45;14.82;;;;;;;;;;4919496;29;20024;-74
2022/03/13 06:10:49;;;;;;;22.83;14.38;;;;;;;;;;4918895;29;20053;-74
2022/03/13 06:13:15;;;;;;;25.95;15.25;;;;;;;;;;4919331;29;20028;-74
2022/03/13 06:15:41;;;;;;;24.42;14.48;;;;;;;;;;4919250;29;20028;-74
2022/03/13 06:18:08;;;;;;;24.52;15.20;;;;;;;;;;4919290;29;20060;-74
2022/03/13 06:20:34;;;;;;;24.27;14.40;;;;;;;;;;4919063;29;20031;-74
2022/03/13 06:23:01;;;;;;;24.67;15.05;;;;;;;;;;4919224;29;20035;-74
2022/03/13 06:25:27;;;;;;;24.85;15.10;;;;;;;;;;4918844;29;20490;-73
2022/03/13 06:27:53;;;;;;;25.77;14.63;;;;;;;;;;4919198;29;20034;-73
2022/03/13 06:30:20;;;;;;;25.23;15.10;;;;;;;;;;4919224;29;20032;-74
2022/03/13 06:32:51;;;;;;;26.25;14.63;;;;;;;;;;4918875;29;20036;-73
2022/03/13 06:35:18;;;;;;;28.33;15.70;;;;;;;;;;4919037;29;20504;-74
2022/03/13 06:37:44;;;;;;;24.73;14.93;;;;;;;;;;4918676;29;20028;-74
2022/03/13 06:40:10;;;;;;;25.55;15.48;;;;;;;;;;4918514;29;20032;-74
2022/03/13 06:42:37;;;;;;;26.23;15.30;;;;;;;;;;4918594;29;20402;-75
2022/03/13 06:45:04;;;;;;;26.40;15.40;;;;;;;;;;4918611;29;20036;-75
2022/03/13 06:47:30;;;;;;;26.02;15.10;;;;;;;;;;4924633;29;20040;-74
2022/03/13 06:49:56;;;;;;;26.00;16.25;;;;;;;;;;4936282;29;20032;-75
2022/03/13 06:52:22;;;;;;;24.50;14.85;;;;;;;;;;4920205;29;20091;-75
2022/03/13 06:54:48;;;;;;;29.02;15.90;;;;;;;;;;4937278;29;20032;-75
2022/03/13 06:57:15;;;;;;;29.17;16.05;;;;;;;;;;4937464;29;20028;-74
2022/03/13 06:59:44;;;;;;;26.30;15.48;;;;;;;;;;4920715;29;20024;-75
2022/03/13 07:02:11;;;;;;;25.10;14.60;;;;;;;;;;4937220;29;20024;-75
2022/03/13 07:04:37;;;;;;;31.67;15.90;;;;;;;;;;4937413;29;20489;-74
2022/03/13 07:07:03;;;;;;;26.00;15.18;;;;;;;;;;4937372;29;20024;-75
2022/03/13 07:09:29;;;;;;;26.85;15.20;;;;;;;;;;4937128;29;20036;-75
2022/03/13 07:11:55;;;;;;;23.02;14.55;;;;;;;;;;4937027;29;20102;-74
2022/03/13 07:14:21;;;;;;;26.13;15.27;;;;;;;;;;4937050;29;20107;-74
2022/03/13 07:16:48;;;;;;;23.95;13.93;;;;;;;;;;4919846;29;20481;-76
2022/03/13 07:19:14;;;;;;;24.55;15.23;;;;;;;;;;4937059;29;20058;-74
2022/03/13 07:21:40;;;;;;;25.48;15.40;;;;;;;;;;4937017;29;20380;-74
2022/03/13 07:24:06;;;;;;;24.63;15.35;;;;;;;;;;4936731;29;20031;-74
2022/03/13 07:26:33;;;;;;;25.35;15.18;;;;;;;;;;4937071;29;20036;-74
2022/03/13 07:29:01;;;;;;;29.30;14.93;;;;;;;;;;4936997;29;20107;-74
2022/03/13 07:31:27;;;;;;;26.30;15.32;;;;;;;;;;4937302;29;20032;-75
2022/03/13 07:33:53;;;;;;;24.90;14.63;;;;;;;;;;4936829;29;20028;-74
2022/03/13 07:36:19;;;;;;;27.75;14.50;;;;;;;;;;4936869;29;20381;-74
2022/03/13 07:38:45;;;;;;;24.50;15.27;;;;;;;;;;4936332;29;20075;-73
2022/03/13 07:41:12;;;;;;;25.17;15.13;;;;;;;;;;4937016;29;20032;-75
2022/03/13 07:43:38;;;;;;;26.58;13.27;;;;;;;;;;4936512;29;20457;-73
2022/03/13 07:46:05;;;;;;;23.17;13.75;;;;;;;;;;4936601;29;20071;-74
2022/03/13 07:48:33;;;;;;;24.55;13.73;;;;;;;;;;4936614;29;20064;-74
2022/03/13 07:51:00;;;;;;;21.00;13.23;;;;;;;;;;4936647;29;20576;-76
2022/03/13 07:53:27;;;;;;;22.45;12.98;;;;;;;;;;4936383;29;20081;-78
2022/03/13 07:55:54;;;;;;;24.17;13.27;;;;;;;;;;4936452;29;20116;-73
2022/03/13 07:58:20;;;;;;;23.42;12.30;;;;;;;;;;4936277;29;20028;-75
2022/03/13 08:00:46;;;;;;;23.23;13.25;;;;;;;;;;4936241;29;20476;-73
2022/03/13 08:03:12;;;;;;;20.58;12.52;;;;;;;;;;4936199;29;20564;-77
2022/03/13 08:05:39;;;;;;;23.77;13.88;;;;;;;;;;4936108;29;20091;-72
2022/03/13 08:08:05;;;;;;;21.13;12.82;;;;;;;;;;4935858;29;20027;-76
2022/03/13 08:10:31;;;;;;;22.77;13.40;;;;;;;;;;4936199;29;20024;-77
2022/03/13 08:12:57;;;;;;;21.05;12.70;;;;;;;;;;4936007;29;20100;-74
2022/03/13 08:15:23;;;;;;;21.77;13.48;;;;;;;;;;4928156;29;20115;-74
2022/03/13 08:17:49;;;;;;;18.63;11.55;;;;;;;;;;4915458;29;20044;-75
2022/03/13 08:20:15;;;;;;;20.85;12.32;;;;;;;;;;4899985;29;20382;-74
2022/03/13 08:22:41;;;;;;;19.08;12.00;;;;;;;;;;4916417;29;20028;-76
2022/03/13 08:25:08;;;;;;;19.55;11.48;;;;;;;;;;4916960;29;20405;-75
2022/03/13 08:27:34;;;;;;;20.35;11.82;;;;;;;;;;4899881;29;20032;-74
2022/03/13 08:30:01;;;;;;;18.00;11.60;;;;;;;;;;4917216;29;20084;-76
2022/03/13 08:32:27;;;;;;;18.10;11.40;;;;;;;;;;4917031;29;20095;-74
2022/03/13 08:34:53;;;;;;;18.38;11.38;;;;;;;;;;4916850;29;20038;-73
2022/03/13 08:37:19;;;;;;;16.42;10.70;;;;;;;;;;4916724;29;20098;-73
2022/03/13 08:39:45;;;;;;;20.50;11.48;;;;;;;;;;4916530;29;20040;-74
2022/03/13 08:42:11;;;;;;;18.90;10.65;;;;;;;;;;4916554;29;20032;-73
2022/03/13 08:44:37;;;;;;;14.23;9.30;;;;;;;;;;4916535;29;20044;-73
2022/03/13 08:47:04;;;;;;;16.38;10.27;;;;;;;;;;4916519;29;20035;-74
2022/03/13 08:49:30;;;;;;;16.27;10.05;;;;;;;;;;4916592;29;20032;-74
2022/03/13 08:51:56;;;;;;;18.73;9.95;;;;;;;;;;4916157;29;20027;-73
2022/03/13 08:54:22;;;;;;;14.25;8.98;;;;;;;;;;4916853;29;20024;-73
2022/03/13 08:56:48;;;;;;;16.13;9.25;;;;;;;;;;4916646;29;20099;-74
2022/03/13 08:59:21;;;;;;;13.40;8.02;;;;;;;;;;4899479;29;20032;-74
2022/03/13 09:01:48;;;;;;;13.85;8.40;;;;;;;;;;4916641;29;20111;-74
2022/03/13 09:04:14;;;;;;;12.95;7.90;;;;;;;;;;4916339;29;20179;-75
2022/03/13 09:06:42;;;;;;;12.77;7.80;;;;;;;;;;4916263;29;20024;-75
2022/03/13 09:09:09;;;;;;;12.23;7.45;;;;;;;;;;4915631;29;20393;-75
2022/03/13 09:11:35;;;;;;;12.02;7.47;;;;;;;;;;4916455;29;20024;-75
2022/03/13 09:14:02;;;;;;;11.27;7.93;;;;;;;;;;4916490;29;20035;-75
2022/03/13 09:16:31;;;;;;;11.57;6.63;;;;;;;;;;4916469;29;20070;-74
2022/03/13 09:18:57;;;;;;;9.65;6.90;;;;;;;;;;4899385;29;20484;-75
2022/03/13 09:21:23;;;;;;;10.90;6.88;;;;;;;;;;4899279;29;20040;-73
2022/03/13 09:23:49;;;;;;;11.02;6.70;;;;;;;;;;4916131;29;20032;-74
2022/03/13 09:26:16;;;;;;;9.80;6.43;;;;;;;;;;4916213;29;20471;-74
2022/03/13 09:28:42;;;;;;;10.07;6.53;;;;;;;;;;4916238;29;20497;-75
2022/03/13 09:31:09;;;;;;;10.32;6.85;;;;;;;;;;4916159;29;20039;-75
2022/03/13 09:33:35;;;;;;;10.73;6.68;;;;;;;;;;4916219;29;20020;-75
2022/03/13 09:36:01;;;;;;;11.48;6.95;;;;;;;;;;4915621;29;20040;-75
2022/03/13 09:38:27;;;;;;;11.82;7.00;;;;;;;;;;4916530;29;20084;-75
2022/03/13 09:40:55;;;;;;;10.25;7.10;;;;;;;;;;4916347;29;20032;-76
2022/03/13 09:43:22;;;;;;;10.95;6.85;;;;;;;;;;4916559;29;20043;-76
2022/03/13 09:45:49;;;;;;;8.38;6.38;;;;;;;;;;4916092;29;20075;-76
2022/03/13 09:48:18;;;;;;;9.85;7.10;;;;;;;;;;4915991;29;20028;-73
2022/03/13 09:50:44;;;;;;;9.88;7.10;;;;;;;;;;4916157;29;20032;-73
2022/03/13 09:53:11;;;;;;;12.25;7.20;;;;;;;;;;4916042;29;20103;-74
2022/03/13 09:55:38;;;;;;;9.43;6.65;;;;;;;;;;4916201;29;20025;-73
2022/03/13 09:58:05;;;;;;;12.73;6.65;;;;;;;;;;4915904;29;20032;-73
2022/03/13 10:00:32;;;;;;;11.98;7.65;;;;;;;;;;4916027;29;20020;-74
2022/03/13 10:02:58;;;;;;;10.32;7.18;;;;;;;;;;4915996;29;20345;-75
2022/03/13 10:05:25;;;;;;;11.07;6.85;;;;;;;;;;4915848;29;20393;-74
2022/03/13 10:07:57;;;;;;;10.15;6.50;;;;;;;;;;4916139;29;20026;-75
2022/03/13 10:10:24;;;;;;;9.40;6.38;;;;;;;;;;4915946;29;20028;-75
2022/03/13 10:12:50;;;;;;;7.95;6.25;;;;;;;;;;4915904;29;20075;-75
2022/03/13 10:15:17;;;;;;;7.68;5.97;;;;;;;;;;4916194;29;20058;-74
2022/03/13 10:17:43;;;;;;;12.13;6.93;;;;;;;;;;4915639;29;20028;-73
2022/03/13 10:20:12;;;;;;;10.10;6.50;;;;;;;;;;4916381;29;20043;-75
2022/03/13 10:22:38;;;;;;;10.48;5.38;;;;;;;;;;4919248;29;20091;-73
2022/03/13 10:25:05;;;;;;;8.10;5.15;;;;;;;;;;4919149;29;20128;-74
2022/03/13 10:27:34;;;;;;;7.18;5.38;;;;;;;;;;4919250;29;20027;-73
2022/03/13 10:30:09;;;;;;;8.85;6.07;;;;;;;;;;4919636;29;20035;-74
2022/03/13 10:32:38;;;;;;;8.93;6.00;;;;;;;;;;4902192;29;20072;-73
2022/03/13 10:35:05;;;;;;;7.88;5.18;;;;;;;;;;4919058;29;20028;-74
2022/03/13 10:37:35;;;;;;;6.95;5.10;;;;;;;;;;4919263;29;20028;-75
2022/03/13 10:40:06;;;;;;;7.55;5.35;;;;;;;;;;4919001;29;20028;-75
2022/03/13 10:42:32;;;;;;;7.88;5.50;;;;;;;;;;4918909;29;20381;-78
2022/03/13 10:45:03;;;;;;;6.53;4.75;;;;;;;;;;4919052;29;20050;-81
2022/03/13 10:47:31;;;;;;;7.68;5.07;;;;;;;;;;4918549;29;20068;-74
2022/03/13 10:49:57;;;;;;;7.53;5.35;;;;;;;;;;4919227;29;20029;-77
2022/03/13 10:52:30;;;;;;;6.50;4.50;;;;;;;;;;4918864;29;20031;-69
2022/03/13 10:54:58;;;;;;;7.03;5.13;;;;;;;;;;4920560;29;20024;-73
2022/03/13 10:57:24;;;;;;;7.13;4.43;;;;;;;;;;4919607;29;20028;-77
2022/03/13 11:00:09;;;;;;;8.05;4.70;;;;;;;;;;4919838;29;20460;-74
2022/03/13 11:02:35;;;;;;;6.88;4.60;;;;;;;;;;4918435;29;20024;-71
2022/03/13 11:05:01;;;;;;;7.22;4.30;;;;;;;;;;4919097;29;20040;-71
2022/03/13 11:07:27;;;;;;;6.72;4.22;;;;;;;;;;4918907;29;20152;-74
2022/03/13 11:09:54;;;;;;;5.57;3.85;;;;;;;;;;4905443;29;20184;-73
2022/03/13 11:12:21;;;;;;;6.22;4.40;;;;;;;;;;4924323;29;20430;-75
2022/03/13 11:14:49;;;;;;;5.88;3.97;;;;;;;;;;4924821;29;20024;-75
2022/03/13 11:17:17;;;;;;;7.25;4.78;;;;;;;;;;4915892;29;20024;-73
2022/03/13 11:19:43;;;;;;;10.98;4.65;;;;;;;;;;4922809;29;20038;-72
2022/03/13 11:22:10;;;;;;;6.38;4.05;;;;;;;;;;4935217;29;20046;-74
2022/03/13 11:24:36;;;;;;;5.85;4.10;;;;;;;;;;4917036;29;20031;-74
2022/03/13 11:27:02;;;;;;;8.07;4.40;;;;;;;;;;4934335;29;20329;-75
2022/03/13 11:29:40;;;;;;;5.60;4.00;;;;;;;;;;4936106;29;20027;-75
2022/03/13 11:32:25;;;;;;;5.20;4.00;;;;;;;;;;4936320;29;20027;-75
2022/03/13 11:35:11;;;;;;;5.95;3.60;;;;;;;;;;4936819;29;20031;-73
2022/03/13 11:37:37;;;;;;;5.20;3.40;;;;;;;;;;4936828;29;20035;-75
2022/03/13 11:40:05;;;;;;;6.38;3.53;;;;;;;;;;4936740;29;20020;-74
2022/03/13 11:42:51;;;;;;;4.95;3.45;;;;;;;;;;4936606;29;20036;-75
2022/03/13 11:45:31;;;;;;;7.20;4.93;;;;;;;;;;4935946;29;20052;-74
2022/03/13 11:47:57;;;;;;;6.63;3.67;;;;;;;;;;4936726;29;20019;-74
2022/03/13 11:50:42;;;;;;;6.53;3.30;;;;;;;;;;4936959;29;20028;-74
2022/03/13 11:53:20;;;;;;;5.43;3.05;;;;;;;;;;4936452;29;20028;-75
2022/03/13 11:55:59;;;;;;;6.10;3.70;;;;;;;;;;4935992;29;20034;-74
2022/03/13 11:58:43;;;;;;;6.28;4.50;;;;;;;;;;4936391;29;20088;-75
2022/03/13 12:01:11;;;;;;;5.28;3.35;;;;;;;;;;4936534;29;20035;-75
2022/03/13 12:03:38;;;;;;;6.78;3.67;;;;;;;;;;4935777;29;20374;-75
2022/03/13 12:06:04;;;;;;;9.18;3.58;;;;;;;;;;4935969;29;20034;-75
2022/03/13 12:08:49;;;;;;;5.47;3.63;;;;;;;;;;4935978;29;20027;-76
2022/03/13 12:11:37;;;;;;;4.68;3.95;;;;;;;;;;4935901;29;20056;-75
2022/03/13 12:14:03;;;;;;;5.38;3.30;;;;;;;;;;4935635;29;20019;-74
2022/03/13 12:16:29;;;;;;;6.70;3.38;;;;;;;;;;4935846;29;20036;-74
2022/03/13 12:18:59;;;;;;;5.82;3.03;;;;;;;;;;4918869;29;20397;-74
2022/03/13 12:21:26;;;;;;;3.67;2.90;;;;;;;;;;4918844;29;20031;-75
2022/03/13 12:23:52;;;;;;;4.20;2.83;;;;;;;;;;4935849;29;20114;-76
2022/03/13 12:26:27;;;;;;;2.90;2.58;;;;;;;;;;4935248;29;20085;-76
2022/03/13 12:28:57;;;;;;;4.80;2.30;;;;;;;;;;4933636;29;20103;-79
2022/03/13 12:31:23;;;;;;;2.75;2.20;;;;;;;;;;4935626;29;20385;-76
2022/03/13 12:33:50;;;;;;;4.95;2.20;;;;;;;;;;4936057;29;20118;-75
2022/03/13 12:36:17;;;;;;;2.20;1.98;;;;;;;;;;4919155;29;20389;-74
2022/03/13 12:38:43;;;;;;;3.80;2.28;;;;;;;;;;4935816;29;20019;-75
2022/03/13 12:41:11;;;;;;;2.38;1.98;;;;;;;;;;4935886;29;20039;-74
2022/03/13 12:43:53;;;;;;;2.45;1.73;;;;;;;;;;4935038;29;20374;-75
2022/03/13 12:46:21;;;;;;;4.47;2.10;;;;;;;;;;4935702;29;20078;-73
2022/03/13 12:48:58;;;;;;;2.28;1.90;;;;;;;;;;4935883;29;20027;-74
2022/03/13 12:51:35;;;;;;;2.78;2.17;;;;;;;;;;4935735;29;20028;-74
2022/03/13 12:54:11;;;;;;;2.13;1.80;;;;;;;;;;4935723;29;20090;-73
2022/03/13 12:56:48;;;;;;;2.22;1.80;;;;;;;;;;4935925;29;20170;-73
2022/03/13 12:59:26;;;;;;;3.00;2.00;;;;;;;;;;4935581;29;20489;-72
2022/03/13 13:02:02;;;;;;;2.92;1.95;;;;;;;;;;4935416;29;20051;-73
2022/03/13 13:04:28;;;;;;;3.90;1.92;;;;;;;;;;4935324;29;20043;-74
2022/03/13 13:06:54;;;;;;;2.90;1.92;;;;;;;;;;4935868;29;20039;-74
2022/03/13 13:09:28;;;;;;;2.53;1.75;;;;;;;;;;4935451;29;20083;-73
2022/03/13 13:11:54;;;;;;;3.67;2.20;;;;;;;;;;4935325;29;20031;-74
2022/03/13 13:14:24;;;;;;;3.35;2.13;;;;;;;;;;4935517;29;20036;-75
2022/03/13 13:16:50;;;;;;;2.45;1.85;;;;;;;;;;4935554;29;20036;-75
2022/03/13 13:19:16;;;;;;;2.67;2.17;;;;;;;;;;4935981;29;20028;-75
2022/03/13 13:21:42;;;;;;;2.20;1.75;;;;;;;;;;4935245;29;20103;-74
2022/03/13 13:24:29;;;;;;;2.85;1.77;;;;;;;;;;4935432;29;20122;-75
2022/03/13 13:26:55;;;;;;;2.40;2.20;;;;;;;;;;4935323;29;20671;-74
2022/03/13 13:29:31;;;;;;;4.10;2.38;;;;;;;;;;4935426;29;20059;-73
2022/03/13 13:32:16;;;;;;;3.58;2.63;;;;;;;;;;4935176;29;20024;-73
2022/03/13 13:34:44;;;;;;;3.17;2.15;;;;;;;;;;4935338;29;20382;-74
2022/03/13 13:37:10;;;;;;;3.65;2.63;;;;;;;;;;4935276;29;20028;-73
2022/03/13 13:39:36;;;;;;;3.83;2.20;;;;;;;;;;4935112;29;20405;-72
2022/03/13 13:42:02;;;;;;;4.50;2.60;;;;;;;;;;4934835;29;20050;-73
2022/03/13 13:44:31;;;;;;;3.72;2.40;;;;;;;;;;4935530;29;20035;-74
2022/03/13 13:47:07;;;;;;;5.78;2.72;;;;;;;;;;4935134;29;20035;-74
2022/03/13 13:49:34;;;;;;;5.75;3.03;;;;;;;;;;4935279;29;20115;-73
2022/03/13 13:52:10;;;;;;;4.82;2.75;;;;;;;;;;4921870;29;20150;-74
2022/03/13 13:54:36;;;;;;;2.92;2.53;;;;;;;;;;4913688;29;20031;-73
2022/03/13 13:57:03;;;;;;;4.65;2.83;;;;;;;;;;4920442;29;20099;-76
2022/03/13 13:59:40;;;;;;;4.00;2.70;;;;;;;;;;4929966;29;20054;-73
2022/03/13 14:02:08;;;;;;;3.15;2.15;;;;;;;;;;4919520;29;20058;-76
2022/03/13 14:04:35;;;;;;;3.03;2.65;;;;;;;;;;4928729;29;20095;-76
2022/03/13 14:07:01;;;;;;;3.50;2.60;;;;;;;;;;4926048;29;20425;-74
2022/03/13 14:09:28;;;;;;;3.00;2.70;;;;;;;;;;4917723;29;20027;-74
2022/03/13 14:11:55;;;;;;;4.45;2.50;;;;;;;;;;4926249;29;20024;-75
2022/03/13 14:14:21;;;;;;;4.85;2.80;;;;;;;;;;4930541;29;20032;-74
2022/03/13 14:16:47;;;;;;;3.47;2.67;;;;;;;;;;4906888;29;20048;-73
2022/03/13 14:19:13;;;;;;;3.83;2.53;;;;;;;;;;4923550;29;20029;-75
2022/03/13 14:21:40;;;;;;;4.43;2.70;;;;;;;;;;4922198;29;20068;-75
2022/03/13 14:24:06;;;;;;;6.20;2.40;;;;;;;;;;4917030;29;20040;-74
2022/03/13 14:26:32;;;;;;;2.70;2.50;;;;;;;;;;4921930;29;20457;-74
2022/03/13 14:28:59;;;;;;;3.60;2.60;;;;;;;;;;4925320;29;20035;-75
2022/03/13 14:31:25;;;;;;;2.70;2.05;;;;;;;;;;4928906;29;20079;-74
2022/03/13 14:33:51;;;;;;;5.07;2.22;;;;;;;;;;4919338;29;20039;-75
2022/03/13 14:36:17;;;;;;;3.63;2.40;;;;;;;;;;4930399;29;20028;-74